sensor_id;sensor_type;location;lat;lon;timestamp;pressure;altitude;pressure_sealevel;temperature;humidity
6528;BME280;64597;42.664;23.256;2023-03-22T00:00:49;94240.63;;;10.55;72.77
6528;BME280;64597;42.664;23.256;2023-03-22T00:03:15;94234.81;;;10.53;72.38
6528;BME280;64597;42.664;23.256;2023-03-22T00:05:41;94237.19;;;10.55;72.49
6528;BME280;64597;42.664;23.256;2023-03-22T00:08:06;94233.84;;;10.59;72.52
6528;BME280;64597;42.664;23.256;2023-03-22T00:10:33;94229.22;;;10.66;72.70
6528;BME280;64597;42.664;23.256;2023-03-22T00:13:00;94204.41;;;10.46;72.47
6528;BME280;64597;42.664;23.256;2023-03-22T00:15:26;94199.03;;;10.41;72.67
6528;BME280;64597;42.664;23.256;2023-03-22T00:17:54;94234.25;;;10.51;72.55
6528;BME280;64597;42.664;23.256;2023-03-22T00:20:20;94232.41;;;10.52;72.38
6528;BME280;64597;42.664;23.256;2023-03-22T00:22:48;94227.47;;;10.55;72.13
6528;BME280;64597;42.664;23.256;2023-03-22T00:25:16;94182.13;;;10.20;71.70
6528;BME280;64597;42.664;23.256;2023-03-22T00:27:41;94230.03;;;10.50;71.80
6528;BME280;64597;42.664;23.256;2023-03-22T00:30:08;94230.03;;;10.50;72.49
6528;BME280;64597;42.664;23.256;2023-03-22T00:32:35;94224.75;;;10.50;72.82
6528;BME280;64597;42.664;23.256;2023-03-22T00:35:01;94211.19;;;10.42;73.12
6528;BME280;64597;42.664;23.256;2023-03-22T00:37:27;94230.09;;;10.55;72.40
6528;BME280;64597;42.664;23.256;2023-03-22T00:39:59;94224.91;;;10.60;72.19
6528;BME280;64597;42.664;23.256;2023-03-22T00:42:24;94218.53;;;10.56;72.86
6528;BME280;64597;42.664;23.256;2023-03-22T00:44:50;94220.22;;;10.46;73.18
6528;BME280;64597;42.664;23.256;2023-03-22T00:47:15;94212.97;;;10.36;72.91
6528;BME280;64597;42.664;23.256;2023-03-22T00:49:41;94219.72;;;10.49;72.46
6528;BME280;64597;42.664;23.256;2023-03-22T00:52:06;94216.31;;;10.48;72.41
6528;BME280;64597;42.664;23.256;2023-03-22T00:54:31;94210.72;;;10.28;72.99
6528;BME280;64597;42.664;23.256;2023-03-22T00:56:57;94230.50;;;10.31;72.90
6528;BME280;64597;42.664;23.256;2023-03-22T00:59:22;94218.16;;;10.31;72.45
6528;BME280;64597;42.664;23.256;2023-03-22T01:01:48;94210.72;;;10.28;73.29
6528;BME280;64597;42.664;23.256;2023-03-22T01:04:13;94188.28;;;10.26;73.56
6528;BME280;64597;42.664;23.256;2023-03-22T01:06:42;94217.03;;;10.44;73.28
6528;BME280;64597;42.664;23.256;2023-03-22T01:09:07;94213.94;;;10.30;72.59
6528;BME280;64597;42.664;23.256;2023-03-22T01:11:41;94135.16;;;9.79;73.39
6528;BME280;64597;42.664;23.256;2023-03-22T01:14:06;94207.50;;;10.26;73.19
6528;BME280;64597;42.664;23.256;2023-03-22T01:16:35;94191.56;;;10.16;74.09
6528;BME280;64597;42.664;23.256;2023-03-22T01:19:01;94206.97;;;10.24;73.71
6528;BME280;64597;42.664;23.256;2023-03-22T01:21:28;94208.06;;;10.28;74.10
6528;BME280;64597;42.664;23.256;2023-03-22T01:23:53;94214.41;;;10.27;73.62
6528;BME280;64597;42.664;23.256;2023-03-22T01:26:19;94189.00;;;10.21;73.36
6528;BME280;64597;42.664;23.256;2023-03-22T01:28:44;94199.41;;;10.28;73.44
6528;BME280;64597;42.664;23.256;2023-03-22T01:31:10;94166.19;;;10.10;73.47
6528;BME280;64597;42.664;23.256;2023-03-22T01:33:36;94194.97;;;10.33;73.17
6528;BME280;64597;42.664;23.256;2023-03-22T01:36:02;94180.06;;;10.22;73.08
6528;BME280;64597;42.664;23.256;2023-03-22T01:38:27;94198.91;;;10.31;72.95
6528;BME280;64597;42.664;23.256;2023-03-22T01:40:52;94198.03;;;10.25;73.21
6528;BME280;64597;42.664;23.256;2023-03-22T01:43:18;94189.78;;;10.05;74.07
6528;BME280;64597;42.664;23.256;2023-03-22T01:45:49;94193.78;;;10.08;73.61
6528;BME280;64597;42.664;23.256;2023-03-22T01:48:31;94191.06;;;10.03;73.58
6528;BME280;64597;42.664;23.256;2023-03-22T01:51:11;94190.91;;;10.09;73.62
6528;BME280;64597;42.664;23.256;2023-03-22T01:53:45;94192.97;;;10.07;73.60
6528;BME280;64597;42.664;23.256;2023-03-22T01:56:12;94192.44;;;10.05;73.99
6528;BME280;64597;42.664;23.256;2023-03-22T01:58:38;94198.50;;;10.06;73.67
6528;BME280;64597;42.664;23.256;2023-03-22T02:01:07;94180.69;;;9.96;73.81
6528;BME280;64597;42.664;23.256;2023-03-22T02:03:53;94188.59;;;9.96;73.84
6528;BME280;64597;42.664;23.256;2023-03-22T02:06:22;94196.31;;;9.86;73.83
6528;BME280;64597;42.664;23.256;2023-03-22T02:08:48;94188.66;;;9.84;74.44
6528;BME280;64597;42.664;23.256;2023-03-22T02:11:26;94195.50;;;9.85;73.44
6528;BME280;64597;42.664;23.256;2023-03-22T02:16:54;94177.72;;;9.76;73.46
6528;BME280;64597;42.664;23.256;2023-03-22T02:22:08;94191.47;;;9.94;74.03
6528;BME280;64597;42.664;23.256;2023-03-22T02:27:34;94187.47;;;9.92;73.73
6528;BME280;64597;42.664;23.256;2023-03-22T02:35:44;94201.91;;;9.89;74.30
6528;BME280;64597;42.664;23.256;2023-03-22T02:38:16;94208.84;;;9.95;74.59
6528;BME280;64597;42.664;23.256;2023-03-22T02:40:53;94196.22;;;9.97;73.78
6528;BME280;64597;42.664;23.256;2023-03-22T02:43:44;94211.31;;;10.02;73.97
6528;BME280;64597;42.664;23.256;2023-03-22T02:46:29;94206.75;;;9.97;73.41
6528;BME280;64597;42.664;23.256;2023-03-22T02:51:41;94207.56;;;9.98;73.09
6528;BME280;64597;42.664;23.256;2023-03-22T02:54:17;94201.34;;;9.71;73.95
6528;BME280;64597;42.664;23.256;2023-03-22T02:56:53;94214.03;;;9.74;73.71
6528;BME280;64597;42.664;23.256;2023-03-22T02:59:22;94211.31;;;9.69;73.94
6528;BME280;64597;42.664;23.256;2023-03-22T03:01:53;94215.84;;;9.73;74.51
6528;BME280;64597;42.664;23.256;2023-03-22T03:04:24;94213.00;;;9.75;74.73
6528;BME280;64597;42.664;23.256;2023-03-22T03:06:54;94214.34;;;9.77;73.78
6528;BME280;64597;42.664;23.256;2023-03-22T03:09:22;94213.56;;;9.77;74.58
6528;BME280;64597;42.664;23.256;2023-03-22T03:11:51;94215.28;;;9.71;74.12
6528;BME280;64597;42.664;23.256;2023-03-22T03:14:37;94211.13;;;9.75;73.99
6528;BME280;64597;42.664;23.256;2023-03-22T03:28:04;94215.13;;;9.78;73.93
6528;BME280;64597;42.664;23.256;2023-03-22T03:30:38;94165.50;;;9.53;74.15
6528;BME280;64597;42.664;23.256;2023-03-22T03:33:14;94218.66;;;9.83;73.79
6528;BME280;64597;42.664;23.256;2023-03-22T03:35:48;94218.47;;;9.73;73.44
6528;BME280;64597;42.664;23.256;2023-03-22T03:38:18;94211.53;;;9.67;73.06
6528;BME280;64597;42.664;23.256;2023-03-22T03:40:54;94195.00;;;9.55;73.67
6528;BME280;64597;42.664;23.256;2023-03-22T03:43:22;94167.06;;;9.38;73.36
6528;BME280;64597;42.664;23.256;2023-03-22T03:45:50;94186.63;;;9.42;73.51
6528;BME280;64597;42.664;23.256;2023-03-22T03:48:28;94229.75;;;9.69;73.61
6528;BME280;64597;42.664;23.256;2023-03-22T03:50:55;94213.19;;;9.57;73.90
6528;BME280;64597;42.664;23.256;2023-03-22T03:53:22;94199.53;;;9.43;73.67
6528;BME280;64597;42.664;23.256;2023-03-22T03:55:47;94236.28;;;9.66;73.23
6528;BME280;64597;42.664;23.256;2023-03-22T03:58:13;94210.84;;;9.44;73.41
6528;BME280;64597;42.664;23.256;2023-03-22T04:00:40;94236.97;;;9.62;73.48
6528;BME280;64597;42.664;23.256;2023-03-22T04:03:06;94161.09;;;9.14;74.03
6528;BME280;64597;42.664;23.256;2023-03-22T04:05:31;94239.03;;;9.60;73.84
6528;BME280;64597;42.664;23.256;2023-03-22T04:07:57;94233.78;;;9.60;73.60
6528;BME280;64597;42.664;23.256;2023-03-22T04:10:22;94210.28;;;9.42;74.09
6528;BME280;64597;42.664;23.256;2023-03-22T04:12:48;94250.69;;;9.64;73.59
6528;BME280;64597;42.664;23.256;2023-03-22T04:15:13;94095.97;;;8.37;73.55
6528;BME280;64597;42.664;23.256;2023-03-22T04:17:40;94216.38;;;9.42;74.01
6528;BME280;64597;42.664;23.256;2023-03-22T04:20:06;94229.78;;;9.57;74.13
6528;BME280;64597;42.664;23.256;2023-03-22T04:22:33;94253.56;;;9.62;73.91
6528;BME280;64597;42.664;23.256;2023-03-22T04:25:03;94250.38;;;9.60;73.83
6528;BME280;64597;42.664;23.256;2023-03-22T04:27:29;94248.31;;;9.62;73.97
6528;BME280;64597;42.664;23.256;2023-03-22T04:29:54;94254.84;;;9.60;74.15
6528;BME280;64597;42.664;23.256;2023-03-22T04:32:20;94247.50;;;9.62;74.54
6528;BME280;64597;42.664;23.256;2023-03-22T04:34:49;94255.97;;;9.64;73.80
6528;BME280;64597;42.664;23.256;2023-03-22T04:37:15;94250.38;;;9.60;73.98
6528;BME280;64597;42.664;23.256;2023-03-22T04:39:41;94242.06;;;9.52;75.03
6528;BME280;64597;42.664;23.256;2023-03-22T04:42:07;94260.56;;;9.57;74.00
6528;BME280;64597;42.664;23.256;2023-03-22T04:44:33;94251.63;;;9.58;74.38
6528;BME280;64597;42.664;23.256;2023-03-22T04:46:58;94258.47;;;9.59;74.23
6528;BME280;64597;42.664;23.256;2023-03-22T04:49:24;94263.09;;;9.52;74.41
6528;BME280;64597;42.664;23.256;2023-03-22T04:51:51;94265.25;;;9.55;74.33
6528;BME280;64597;42.664;23.256;2023-03-22T04:54:17;94268.75;;;9.44;74.36
6528;BME280;64597;42.664;23.256;2023-03-22T04:56:42;94217.13;;;9.14;74.01
6528;BME280;64597;42.664;23.256;2023-03-22T04:59:07;94262.34;;;9.40;74.46
6528;BME280;64597;42.664;23.256;2023-03-22T05:01:35;94270.81;;;9.42;74.09
6528;BME280;64597;42.664;23.256;2023-03-22T05:04:02;94257.16;;;9.45;74.24
6528;BME280;64597;42.664;23.256;2023-03-22T05:06:27;94271.13;;;9.45;74.59
6528;BME280;64597;42.664;23.256;2023-03-22T05:08:53;94266.19;;;9.49;74.46
6528;BME280;64597;42.664;23.256;2023-03-22T05:11:18;94221.56;;;9.26;74.27
6528;BME280;64597;42.664;23.256;2023-03-22T05:13:44;94270.88;;;9.47;73.86
6528;BME280;64597;42.664;23.256;2023-03-22T05:16:10;94275.59;;;9.45;73.97
6528;BME280;64597;42.664;23.256;2023-03-22T05:18:36;94277.09;;;9.41;74.22
6528;BME280;64597;42.664;23.256;2023-03-22T05:21:11;94277.56;;;9.38;73.91
6528;BME280;64597;42.664;23.256;2023-03-22T05:23:38;94275.50;;;9.40;74.82
6528;BME280;64597;42.664;23.256;2023-03-22T05:26:04;94307.53;;;9.37;75.14
6528;BME280;64597;42.664;23.256;2023-03-22T05:28:29;94286.84;;;9.40;74.79
6528;BME280;64597;42.664;23.256;2023-03-22T05:30:56;94279.50;;;9.42;74.42
6528;BME280;64597;42.664;23.256;2023-03-22T05:33:21;94291.94;;;9.47;74.17
6528;BME280;64597;42.664;23.256;2023-03-22T05:35:47;94287.03;;;9.50;74.23
6528;BME280;64597;42.664;23.256;2023-03-22T05:38:14;94289.97;;;9.54;74.34
6528;BME280;64597;42.664;23.256;2023-03-22T05:40:40;94272.94;;;9.45;74.63
6528;BME280;64597;42.664;23.256;2023-03-22T05:43:06;94291.19;;;9.63;74.27
6528;BME280;64597;42.664;23.256;2023-03-22T05:45:31;94299.09;;;9.63;74.74
6528;BME280;64597;42.664;23.256;2023-03-22T05:47:59;94294.31;;;9.60;74.43
6528;BME280;64597;42.664;23.256;2023-03-22T05:50:24;94280.47;;;9.53;75.16
6528;BME280;64597;42.664;23.256;2023-03-22T05:52:50;94286.41;;;9.60;74.08
6528;BME280;64597;42.664;23.256;2023-03-22T05:55:16;94306.72;;;9.76;74.39
6528;BME280;64597;42.664;23.256;2023-03-22T05:57:43;94318.47;;;9.85;74.38
6528;BME280;64597;42.664;23.256;2023-03-22T06:00:10;94309.78;;;9.84;73.62
6528;BME280;64597;42.664;23.256;2023-03-22T06:02:41;94304.66;;;9.78;73.85
6528;BME280;64597;42.664;23.256;2023-03-22T06:05:07;94309.09;;;9.77;73.75
6528;BME280;64597;42.664;23.256;2023-03-22T06:07:35;94313.34;;;9.78;72.93
6528;BME280;64597;42.664;23.256;2023-03-22T06:10:01;94306.63;;;9.71;73.11
6528;BME280;64597;42.664;23.256;2023-03-22T06:12:26;94318.00;;;9.88;72.51
6528;BME280;64597;42.664;23.256;2023-03-22T06:14:52;94315.66;;;9.75;72.08
6528;BME280;64597;42.664;23.256;2023-03-22T06:17:18;94319.31;;;9.74;72.63
6528;BME280;64597;42.664;23.256;2023-03-22T06:19:44;94296.81;;;9.27;73.25
6528;BME280;64597;42.664;23.256;2023-03-22T06:22:09;94314.06;;;9.74;73.25
6528;BME280;64597;42.664;23.256;2023-03-22T06:24:35;94320.44;;;9.78;74.37
6528;BME280;64597;42.664;23.256;2023-03-22T06:27:00;94132.97;;;8.58;73.16
6528;BME280;64597;42.664;23.256;2023-03-22T06:29:26;94310.84;;;9.72;73.80
6528;BME280;64597;42.664;23.256;2023-03-22T06:31:51;94319.19;;;9.80;73.08
6528;BME280;64597;42.664;23.256;2023-03-22T06:34:17;94281.16;;;9.60;73.39
6528;BME280;64597;42.664;23.256;2023-03-22T06:36:42;94329.56;;;9.87;73.61
6528;BME280;64597;42.664;23.256;2023-03-22T06:39:08;94314.06;;;9.74;73.28
6528;BME280;64597;42.664;23.256;2023-03-22T06:41:33;94331.59;;;9.96;73.14
6528;BME280;64597;42.664;23.256;2023-03-22T06:43:59;94344.31;;;10.00;73.61
6528;BME280;64597;42.664;23.256;2023-03-22T06:46:25;94335.47;;;9.94;73.22
6528;BME280;64597;42.664;23.256;2023-03-22T06:48:51;94260.94;;;9.49;73.49
6528;BME280;64597;42.664;23.256;2023-03-22T06:51:17;94337.84;;;10.07;73.53
6528;BME280;64597;42.664;23.256;2023-03-22T06:53:43;94327.19;;;10.02;73.35
6528;BME280;64597;42.664;23.256;2023-03-22T06:56:09;94348.59;;;10.17;73.04
6528;BME280;64597;42.664;23.256;2023-03-22T06:58:35;94345.00;;;10.23;73.18
6528;BME280;64597;42.664;23.256;2023-03-22T07:01:00;94349.22;;;10.24;73.35
6528;BME280;64597;42.664;23.256;2023-03-22T07:03:26;94346.59;;;10.24;73.32
6528;BME280;64597;42.664;23.256;2023-03-22T07:05:51;94355.16;;;10.31;72.58
6528;BME280;64597;42.664;23.256;2023-03-22T07:08:16;94357.34;;;10.34;71.86
6528;BME280;64597;42.664;23.256;2023-03-22T07:10:42;94348.13;;;10.37;70.87
6528;BME280;64597;42.664;23.256;2023-03-22T07:13:08;94345.88;;;10.29;70.49
6528;BME280;64597;42.664;23.256;2023-03-22T07:15:34;94320.44;;;10.06;70.38
6528;BME280;64597;42.664;23.256;2023-03-22T07:18:01;94356.03;;;10.37;70.84
6528;BME280;64597;42.664;23.256;2023-03-22T07:20:27;94358.91;;;10.35;70.51
6528;BME280;64597;42.664;23.256;2023-03-22T07:22:52;94299.13;;;10.08;69.71
6528;BME280;64597;42.664;23.256;2023-03-22T07:25:18;94353.19;;;10.38;69.63
6528;BME280;64597;42.664;23.256;2023-03-22T07:27:44;94326.31;;;10.25;69.19
6528;BME280;64597;42.664;23.256;2023-03-22T07:30:10;94316.50;;;10.20;69.72
6528;BME280;64597;42.664;23.256;2023-03-22T07:32:38;94324.38;;;10.20;69.67
6528;BME280;64597;42.664;23.256;2023-03-22T07:35:04;94370.75;;;10.49;69.99
6528;BME280;64597;42.664;23.256;2023-03-22T07:37:30;94350.56;;;10.38;70.11
6528;BME280;64597;42.664;23.256;2023-03-22T07:39:55;94375.63;;;10.57;70.12
6528;BME280;64597;42.664;23.256;2023-03-22T07:42:21;94377.31;;;10.63;70.38
6528;BME280;64597;42.664;23.256;2023-03-22T07:44:46;94380.03;;;10.68;71.02
6528;BME280;64597;42.664;23.256;2023-03-22T07:47:13;94382.13;;;10.66;70.48
6528;BME280;64597;42.664;23.256;2023-03-22T07:49:39;94345.34;;;10.43;69.17
6528;BME280;64597;42.664;23.256;2023-03-22T07:52:05;94368.28;;;10.59;69.18
6528;BME280;64597;42.664;23.256;2023-03-22T07:54:30;94357.09;;;10.52;69.37
6528;BME280;64597;42.664;23.256;2023-03-22T07:56:56;94384.03;;;10.71;68.88
6528;BME280;64597;42.664;23.256;2023-03-22T07:59:22;94387.00;;;10.74;69.10
6528;BME280;64597;42.664;23.256;2023-03-22T08:01:47;94390.09;;;10.71;69.31
6528;BME280;64597;42.664;23.256;2023-03-22T08:04:13;94369.47;;;10.52;69.72
6528;BME280;64597;42.664;23.256;2023-03-22T08:06:38;94384.81;;;10.71;69.45
6528;BME280;64597;42.664;23.256;2023-03-22T08:09:07;94369.97;;;10.65;69.40
6528;BME280;64597;42.664;23.256;2023-03-22T08:11:33;94379.00;;;10.69;69.57
6528;BME280;64597;42.664;23.256;2023-03-22T08:13:58;94369.34;;;10.58;69.61
6528;BME280;64597;42.664;23.256;2023-03-22T08:16:24;94354.06;;;10.44;69.80
6528;BME280;64597;42.664;23.256;2023-03-22T08:18:49;94387.94;;;10.68;68.87
6528;BME280;64597;42.664;23.256;2023-03-22T08:21:15;94386.75;;;10.76;68.76
6528;BME280;64597;42.664;23.256;2023-03-22T08:23:40;94385.31;;;10.68;68.76
6528;BME280;64597;42.664;23.256;2023-03-22T08:26:06;94251.69;;;9.74;69.05
6528;BME280;64597;42.664;23.256;2023-03-22T08:28:31;94399.06;;;10.70;69.44
6528;BME280;64597;42.664;23.256;2023-03-22T08:30:57;94376.19;;;10.59;70.12
6528;BME280;64597;42.664;23.256;2023-03-22T08:33:22;94394.91;;;10.74;69.96
6528;BME280;64597;42.664;23.256;2023-03-22T08:35:49;94392.34;;;10.79;69.77
6528;BME280;64597;42.664;23.256;2023-03-22T08:38:15;94400.25;;;10.79;68.91
6528;BME280;64597;42.664;23.256;2023-03-22T08:40:40;94394.50;;;10.66;69.73
6528;BME280;64597;42.664;23.256;2023-03-22T08:43:06;94353.66;;;10.35;70.30
6528;BME280;64597;42.664;23.256;2023-03-22T08:45:31;94314.25;;;10.12;70.30
6528;BME280;64597;42.664;23.256;2023-03-22T08:47:57;94347.75;;;10.45;70.37
6528;BME280;64597;42.664;23.256;2023-03-22T08:50:24;94407.69;;;10.83;70.33
6528;BME280;64597;42.664;23.256;2023-03-22T08:52:50;94405.88;;;10.83;70.47
6528;BME280;64597;42.664;23.256;2023-03-22T08:55:15;94369.34;;;10.58;70.80
6528;BME280;64597;42.664;23.256;2023-03-22T08:57:42;94415.03;;;10.81;71.60
6528;BME280;64597;42.664;23.256;2023-03-22T09:00:09;94381.81;;;10.63;71.36
6528;BME280;64597;42.664;23.256;2023-03-22T09:02:35;94416.78;;;10.92;71.30
6528;BME280;64597;42.664;23.256;2023-03-22T09:05:01;94422.00;;;10.87;70.90
6528;BME280;64597;42.664;23.256;2023-03-22T09:07:27;94417.75;;;10.86;70.97
6528;BME280;64597;42.664;23.256;2023-03-22T09:09:52;94421.34;;;10.79;70.91
6528;BME280;64597;42.664;23.256;2023-03-22T09:12:18;94425.03;;;10.78;71.11
6528;BME280;64597;42.664;23.256;2023-03-22T09:14:43;94400.00;;;10.64;71.56
6528;BME280;64597;42.664;23.256;2023-03-22T09:17:11;94370.34;;;10.57;71.19
6528;BME280;64597;42.664;23.256;2023-03-22T09:19:36;94420.88;;;10.83;70.64
6528;BME280;64597;42.664;23.256;2023-03-22T09:22:02;94424.31;;;10.83;70.63
6528;BME280;64597;42.664;23.256;2023-03-22T09:24:27;94423.03;;;10.86;70.91
6528;BME280;64597;42.664;23.256;2023-03-22T09:26:53;94313.84;;;10.20;70.82
6528;BME280;64597;42.664;23.256;2023-03-22T09:29:18;94420.94;;;10.88;71.24
6528;BME280;64597;42.664;23.256;2023-03-22T09:31:44;94406.06;;;10.82;70.76
6528;BME280;64597;42.664;23.256;2023-03-22T09:34:13;94411.84;;;10.78;70.75
6528;BME280;64597;42.664;23.256;2023-03-22T09:36:38;94426.72;;;10.85;71.14
6528;BME280;64597;42.664;23.256;2023-03-22T09:39:04;94413.94;;;10.76;71.13
6528;BME280;64597;42.664;23.256;2023-03-22T09:41:43;94420.31;;;10.81;71.43
6528;BME280;64597;42.664;23.256;2023-03-22T09:44:15;94408.72;;;10.82;71.15
6528;BME280;64597;42.664;23.256;2023-03-22T09:46:47;94416.78;;;10.92;70.74
6528;BME280;64597;42.664;23.256;2023-03-22T09:49:21;94414.91;;;10.87;70.30
6528;BME280;64597;42.664;23.256;2023-03-22T09:51:51;94396.75;;;10.74;71.25
6528;BME280;64597;42.664;23.256;2023-03-22T09:54:31;94428.97;;;10.93;71.37
6528;BME280;64597;42.664;23.256;2023-03-22T09:57:01;94417.19;;;11.00;71.64
6528;BME280;64597;42.664;23.256;2023-03-22T10:10:43;94423.84;;;11.03;70.49
6528;BME280;64597;42.664;23.256;2023-03-22T10:15:58;94406.91;;;10.99;69.91
6528;BME280;64597;42.664;23.256;2023-03-22T10:18:37;94429.13;;;11.03;69.80
6528;BME280;64597;42.664;23.256;2023-03-22T10:21:10;94369.91;;;10.60;70.58
6528;BME280;64597;42.664;23.256;2023-03-22T10:26:17;94421.91;;;10.98;69.94
6528;BME280;64597;42.664;23.256;2023-03-22T10:28:44;94402.13;;;10.96;69.66
6528;BME280;64597;42.664;23.256;2023-03-22T10:31:15;94431.50;;;11.04;69.85
6528;BME280;64597;42.664;23.256;2023-03-22T10:33:57;94355.91;;;10.60;70.31
6528;BME280;64597;42.664;23.256;2023-03-22T10:36:27;94434.69;;;11.06;69.75
6528;BME280;64597;42.664;23.256;2023-03-22T10:42:25;94428.31;;;11.19;69.10
6528;BME280;64597;42.664;23.256;2023-03-22T10:45:07;94413.28;;;11.03;69.63
6528;BME280;64597;42.664;23.256;2023-03-22T10:47:58;94430.22;;;11.07;70.26
6528;BME280;64597;42.664;23.256;2023-03-22T10:50:30;94406.81;;;10.94;69.56
6528;BME280;64597;42.664;23.256;2023-03-22T10:56:09;94397.47;;;11.03;69.38
6528;BME280;64597;42.664;23.256;2023-03-22T10:58:36;94423.59;;;11.21;69.43
6528;BME280;64597;42.664;23.256;2023-03-22T11:01:08;94399.53;;;11.01;69.17
6528;BME280;64597;42.664;23.256;2023-03-22T11:03:36;94423.91;;;11.24;69.74
6528;BME280;64597;42.664;23.256;2023-03-22T11:06:11;94411.34;;;11.15;69.42
6528;BME280;64597;42.664;23.256;2023-03-22T11:08:51;94428.53;;;11.34;68.91
6528;BME280;64597;42.664;23.256;2023-03-22T11:11:27;94428.28;;;11.35;69.01
6528;BME280;64597;42.664;23.256;2023-03-22T11:14:00;94432.78;;;11.35;69.30
6528;BME280;64597;42.664;23.256;2023-03-22T11:16:26;94386.75;;;11.09;69.41
6528;BME280;64597;42.664;23.256;2023-03-22T11:18:53;94422.72;;;11.32;69.30
6528;BME280;64597;42.664;23.256;2023-03-22T11:21:24;94393.94;;;11.14;69.69
6528;BME280;64597;42.664;23.256;2023-03-22T11:24:13;94418.25;;;11.32;70.22
6528;BME280;64597;42.664;23.256;2023-03-22T11:26:40;94327.47;;;10.78;69.91
6528;BME280;64597;42.664;23.256;2023-03-22T11:29:16;94422.47;;;11.33;70.21
6528;BME280;64597;42.664;23.256;2023-03-22T11:31:55;94411.19;;;11.38;70.50
6528;BME280;64597;42.664;23.256;2023-03-22T11:34:24;94423.81;;;11.36;70.46
6528;BME280;64597;42.664;23.256;2023-03-22T11:36:50;94397.28;;;11.26;70.62
6528;BME280;64597;42.664;23.256;2023-03-22T11:39:22;94412.16;;;11.32;70.93
6528;BME280;64597;42.664;23.256;2023-03-22T11:41:49;94414.28;;;11.35;70.72
6528;BME280;64597;42.664;23.256;2023-03-22T11:44:18;94405.91;;;11.38;70.25
6528;BME280;64597;42.664;23.256;2023-03-22T11:46:53;94414.53;;;11.33;70.54
6528;BME280;64597;42.664;23.256;2023-03-22T11:49:19;94410.88;;;11.34;70.40
6528;BME280;64597;42.664;23.256;2023-03-22T11:51:48;94429.56;;;11.33;70.32
6528;BME280;64597;42.664;23.256;2023-03-22T11:56:47;94340.84;;;10.94;69.65
6528;BME280;64597;42.664;23.256;2023-03-22T11:59:15;94406.38;;;11.35;69.02
6528;BME280;64597;42.664;23.256;2023-03-22T12:02:22;94413.13;;;11.26;69.15
6528;BME280;64597;42.664;23.256;2023-03-22T12:04:53;94351.09;;;10.90;69.70
6528;BME280;64597;42.664;23.256;2023-03-22T12:07:21;94412.63;;;11.29;69.24
6528;BME280;64597;42.664;23.256;2023-03-22T12:10:05;94400.41;;;11.23;68.28
6528;BME280;64597;42.664;23.256;2023-03-22T12:12:43;94397.28;;;11.26;67.72
6528;BME280;64597;42.664;23.256;2023-03-22T12:15:18;94404.09;;;11.22;69.18
6528;BME280;64597;42.664;23.256;2023-03-22T12:17:53;94398.81;;;11.22;68.61
6528;BME280;64597;42.664;23.256;2023-03-22T12:20:24;94410.94;;;11.23;69.39
6528;BME280;64597;42.664;23.256;2023-03-22T12:22:54;94413.44;;;11.29;69.37
6528;BME280;64597;42.664;23.256;2023-03-22T12:25:23;94300.44;;;10.71;68.84
6528;BME280;64597;42.664;23.256;2023-03-22T12:27:53;94402.72;;;11.36;69.24
6528;BME280;64597;42.664;23.256;2023-03-22T12:30:23;94404.53;;;11.35;69.48
6528;BME280;64597;42.664;23.256;2023-03-22T12:35:26;94394.84;;;11.41;69.89
6528;BME280;64597;42.664;23.256;2023-03-22T12:37:56;94387.31;;;11.49;69.17
6528;BME280;64597;42.664;23.256;2023-03-22T12:40:26;94392.16;;;11.57;69.20
6528;BME280;64597;42.664;23.256;2023-03-22T12:43:12;94361.72;;;11.50;69.54
6528;BME280;64597;42.664;23.256;2023-03-22T12:45:51;94386.16;;;11.62;69.95
6528;BME280;64597;42.664;23.256;2023-03-22T12:48:20;94385.84;;;11.75;69.89
6528;BME280;64597;42.664;23.256;2023-03-22T12:51:07;94385.41;;;11.83;69.37
6528;BME280;64597;42.664;23.256;2023-03-22T12:53:36;94397.09;;;11.87;68.36
6528;BME280;64597;42.664;23.256;2023-03-22T12:56:13;94397.31;;;11.86;68.68
6528;BME280;64597;42.664;23.256;2023-03-22T12:58:42;94393.22;;;11.95;68.62
6528;BME280;64597;42.664;23.256;2023-03-22T13:03:45;94379.00;;;12.01;67.99
6528;BME280;64597;42.664;23.256;2023-03-22T13:11:26;94382.63;;;11.95;65.83
6528;BME280;64597;42.664;23.256;2023-03-22T13:13:51;94392.47;;;11.99;65.96
6528;BME280;64597;42.664;23.256;2023-03-22T13:16:19;94382.44;;;12.01;66.04
6528;BME280;64597;42.664;23.256;2023-03-22T13:26:41;94377.81;;;12.13;65.25
6528;BME280;64597;42.664;23.256;2023-03-22T13:29:24;94378.28;;;12.05;64.78
6528;BME280;64597;42.664;23.256;2023-03-22T13:34:29;94368.25;;;12.07;64.44
6528;BME280;64597;42.664;23.256;2023-03-22T13:36:56;94375.56;;;12.00;63.71
6528;BME280;64597;42.664;23.256;2023-03-22T13:39:23;94336.91;;;11.94;63.39
6528;BME280;64597;42.664;23.256;2023-03-22T13:42:19;94367.84;;;12.20;63.53
6528;BME280;64597;42.664;23.256;2023-03-22T13:44:53;94356.13;;;12.11;63.71
6528;BME280;64597;42.664;23.256;2023-03-22T13:47:42;94377.09;;;12.18;62.73
6528;BME280;64597;42.664;23.256;2023-03-22T13:50:27;94375.75;;;12.15;62.62
6528;BME280;64597;42.664;23.256;2023-03-22T13:53:11;94388.31;;;12.30;62.16
6528;BME280;64597;42.664;23.256;2023-03-22T13:58:47;94373.03;;;12.37;62.56
6528;BME280;64597;42.664;23.256;2023-03-22T14:01:26;94379.75;;;12.45;62.31
6528;BME280;64597;42.664;23.256;2023-03-22T14:03:58;94381.06;;;12.47;61.80
6528;BME280;64597;42.664;23.256;2023-03-22T14:06:34;94379.78;;;12.50;62.13
6528;BME280;64597;42.664;23.256;2023-03-22T14:09:11;94361.69;;;12.36;61.80
6528;BME280;64597;42.664;23.256;2023-03-22T14:11:39;94286.78;;;11.73;61.80
6528;BME280;64597;42.664;23.256;2023-03-22T14:14:41;94388.13;;;12.63;62.00
6528;BME280;64597;42.664;23.256;2023-03-22T14:19:55;94379.38;;;12.63;60.94
6528;BME280;64597;42.664;23.256;2023-03-22T14:22:28;94366.56;;;12.50;60.32
6528;BME280;64597;42.664;23.256;2023-03-22T14:24:56;94380.22;;;12.68;61.03
6528;BME280;64597;42.664;23.256;2023-03-22T14:27:24;94386.13;;;12.75;61.18
6528;BME280;64597;42.664;23.256;2023-03-22T14:29:50;94343.59;;;12.55;61.55
6528;BME280;64597;42.664;23.256;2023-03-22T14:32:26;94370.53;;;12.79;61.21
6528;BME280;64597;42.664;23.256;2023-03-22T14:35:09;94341.28;;;12.64;61.17